createdAt,value
2023-05-21T00:01:51.305Z,2.00
2023-05-21T00:04:19.393Z,3.00
2023-05-21T00:06:47.583Z,2.50
2023-05-21T00:09:16.767Z,2.00
2023-05-21T00:11:44.754Z,2.00
2023-05-21T00:14:12.833Z,2.75
2023-05-21T00:16:42.587Z,2.00
2023-05-21T00:19:11.022Z,3.00
2023-05-21T00:21:41.416Z,3.00
2023-05-21T00:24:09.425Z,2.00
2023-05-21T00:26:39.947Z,3.00
2023-05-21T00:29:08.066Z,3.00
2023-05-21T00:31:36.160Z,2.00
2023-05-21T00:34:05.485Z,3.00
2023-05-21T00:36:34.827Z,3.00
2023-05-21T00:39:04.770Z,2.00
2023-05-21T00:41:32.720Z,2.00
2023-05-21T00:44:03.398Z,2.00
2023-05-21T00:46:31.500Z,2.00
2023-05-21T00:49:01.977Z,3.00
2023-05-21T00:51:30.956Z,2.00
2023-05-21T00:54:01.144Z,2.00
2023-05-21T00:56:29.084Z,2.33
2023-05-21T00:58:59.432Z,2.00
2023-05-21T01:01:27.800Z,2.00
2023-05-21T01:03:58.174Z,2.00
2023-05-21T01:06:26.409Z,3.00
2023-05-21T01:08:57.029Z,2.00
2023-05-21T01:11:36.084Z,2.00
2023-05-21T01:14:09.406Z,3.00
2023-05-21T01:16:37.618Z,3.00
2023-05-21T01:19:07.277Z,3.00
2023-05-21T01:21:37.464Z,2.75
2023-05-21T01:24:07.743Z,2.00
2023-05-21T01:26:38.741Z,3.00
2023-05-21T01:29:13.167Z,3.00
2023-05-21T01:31:56.719Z,3.00
2023-05-21T01:34:30.355Z,1.00
2023-05-21T01:37:08.991Z,3.00
2023-05-21T01:39:39.109Z,2.00
2023-05-21T01:42:09.267Z,3.00
2023-05-21T01:44:38.610Z,3.00
2023-05-21T01:47:06.927Z,2.00
2023-05-21T01:49:37.225Z,2.00
2023-05-21T01:52:05.579Z,2.00
2023-05-21T01:54:35.769Z,3.00
2023-05-21T01:57:04.067Z,1.50
2023-05-21T01:59:34.748Z,3.00
2023-05-21T02:02:02.866Z,2.33
2023-05-21T02:04:33.219Z,2.33
2023-05-21T02:07:01.136Z,2.00
2023-05-21T02:09:29.215Z,2.00
2023-05-21T02:11:58.571Z,2.50
2023-05-21T02:14:26.982Z,3.00
2023-05-21T02:16:58.131Z,3.00
2023-05-21T02:19:26.516Z,3.00
2023-05-21T02:21:55.912Z,3.00
2023-05-21T02:24:24.660Z,3.00
2023-05-21T02:26:54.131Z,2.00
2023-05-21T02:29:22.128Z,3.00
2023-05-21T02:31:51.818Z,3.00
2023-05-21T02:34:21.933Z,2.00
2023-05-21T02:36:53.995Z,3.00
2023-05-21T02:39:21.906Z,3.00
2023-05-21T02:41:51.404Z,3.00
2023-05-21T02:44:20.933Z,3.00
2023-05-21T02:46:51.006Z,3.00
2023-05-21T02:49:19.503Z,2.75
2023-05-21T02:51:49.051Z,1.50
2023-05-21T02:54:17.247Z,2.00
2023-05-21T02:56:47.656Z,3.00
2023-05-21T02:59:15.752Z,2.00
2023-05-21T03:01:46.796Z,3.00
2023-05-21T03:04:14.986Z,2.00
2023-05-21T03:06:47.247Z,3.00
2023-05-21T03:09:15.306Z,2.67
2023-05-21T03:11:44.685Z,2.00
2023-05-21T03:14:13.457Z,3.00
2023-05-21T03:16:43.882Z,2.00
2023-05-21T03:19:13.115Z,2.00
2023-05-21T03:21:43.206Z,2.00
2023-05-21T03:24:13.742Z,2.00
2023-05-21T03:26:42.938Z,2.00
2023-05-21T03:29:11.109Z,3.00
2023-05-21T03:31:42.242Z,2.00
2023-05-21T03:34:12.630Z,3.00
2023-05-21T03:36:42.178Z,2.00
2023-05-21T03:39:10.628Z,2.00
2023-05-21T03:41:40.665Z,2.00
2023-05-21T03:44:11.227Z,1.75
2023-05-21T03:46:59.300Z,2.00
2023-05-21T03:49:34.916Z,2.00
2023-05-21T03:52:03.521Z,2.00
2023-05-21T03:54:33.747Z,2.00
2023-05-21T03:57:04.614Z,2.00
2023-05-21T03:59:35.061Z,2.00
2023-05-21T04:02:03.309Z,2.00
2023-05-21T04:04:31.299Z,1.67
2023-05-21T04:07:01.071Z,2.00
2023-05-21T04:09:29.739Z,2.00
2023-05-21T04:12:00.221Z,2.00
2023-05-21T04:14:28.383Z,2.00
2023-05-21T04:16:58.674Z,2.00
2023-05-21T04:19:26.812Z,2.67
2023-05-21T04:21:58.317Z,2.00
2023-05-21T04:24:26.461Z,3.00
2023-05-21T04:27:06.137Z,3.00
2023-05-21T04:29:34.072Z,3.00
2023-05-21T04:32:04.955Z,2.00
2023-05-21T04:34:34.131Z,2.75
2023-05-21T04:37:03.910Z,3.00
2023-05-21T04:39:32.361Z,2.25
2023-05-21T04:42:03.347Z,2.00
2023-05-21T04:44:31.707Z,3.00
2023-05-21T04:47:02.364Z,3.00
2023-05-21T04:49:31.085Z,3.00
2023-05-21T04:52:02.268Z,3.00
2023-05-21T04:54:30.517Z,3.00
2023-05-21T04:56:59.952Z,4.00
2023-05-21T04:59:27.910Z,2.00
2023-05-21T05:01:56.218Z,3.25
2023-05-21T05:04:26.438Z,3.00
2023-05-21T05:06:54.330Z,3.75
2023-05-21T05:09:25.377Z,2.00
2023-05-21T05:11:53.775Z,2.00
2023-05-21T05:14:23.312Z,3.00
2023-05-21T05:16:51.818Z,3.00
2023-05-21T05:19:21.661Z,2.00
2023-05-21T05:21:49.668Z,2.00
2023-05-21T05:24:20.268Z,3.00
2023-05-21T05:26:48.482Z,3.00
2023-05-21T05:29:18.972Z,2.00
2023-05-21T05:31:47.908Z,3.00
2023-05-21T05:34:17.877Z,2.00
2023-05-21T05:36:45.948Z,4.00
2023-05-21T05:39:14.187Z,2.00
2023-05-21T05:41:43.510Z,3.50
2023-05-21T05:44:11.568Z,2.50
2023-05-21T05:46:42.424Z,3.00
2023-05-21T05:49:12.058Z,3.00
2023-05-21T05:51:42.181Z,3.00
2023-05-21T05:54:10.743Z,3.00
2023-05-21T05:56:41.114Z,3.00
2023-05-21T05:59:09.561Z,3.00
2023-05-21T06:01:42.490Z,3.00
2023-05-21T06:04:11.542Z,3.25
2023-05-21T06:06:41.046Z,2.00
2023-05-21T06:09:10.054Z,3.00
2023-05-21T06:11:40.396Z,3.00
2023-05-21T06:14:08.565Z,3.00
2023-05-21T06:16:39.156Z,3.00
2023-05-21T06:19:07.520Z,1.00
2023-05-21T06:21:37.105Z,2.00
2023-05-21T06:24:06.199Z,3.00
2023-05-21T06:26:35.517Z,3.00
2023-05-21T06:29:04.254Z,3.00
2023-05-21T06:31:35.311Z,3.00
2023-05-21T06:34:04.120Z,3.00
2023-05-21T06:36:33.680Z,3.00
2023-05-21T06:39:01.965Z,3.00
2023-05-21T06:41:31.668Z,2.00
2023-05-21T06:44:03.829Z,3.00
2023-05-21T06:46:42.657Z,3.00
2023-05-21T06:49:14.496Z,2.00
2023-05-21T06:51:44.496Z,3.00
2023-05-21T06:54:13.670Z,2.75
2023-05-21T06:56:43.116Z,3.00
2023-05-21T06:59:11.154Z,2.00
2023-05-21T07:01:45.032Z,2.00
2023-05-21T07:04:14.212Z,3.00
2023-05-21T07:06:44.060Z,2.00
2023-05-21T07:09:12.777Z,3.00
2023-05-21T07:11:43.501Z,2.00
2023-05-21T07:14:12.008Z,3.00
2023-05-21T07:16:42.335Z,3.00
2023-05-21T07:19:10.598Z,3.00
2023-05-21T07:21:40.060Z,3.00
2023-05-21T07:24:08.751Z,2.50
2023-05-21T07:26:40.620Z,3.50
2023-05-21T07:29:08.714Z,2.00
2023-05-21T07:31:39.068Z,2.00
2023-05-21T07:34:07.236Z,2.25
2023-05-21T07:36:37.116Z,1.00
2023-05-21T07:39:05.631Z,2.00
2023-05-21T07:41:35.152Z,1.00
2023-05-21T07:44:04.985Z,2.00
2023-05-21T07:46:34.873Z,2.00
2023-05-21T07:49:03.012Z,2.00
2023-05-21T07:51:33.477Z,2.00
2023-05-21T07:54:01.522Z,2.00
2023-05-21T07:56:34.784Z,2.00
2023-05-21T07:59:03.740Z,2.00
2023-05-21T08:01:34.629Z,3.00
2023-05-21T08:04:06.839Z,2.00
2023-05-21T08:06:37.811Z,2.00
2023-05-21T08:09:06.786Z,2.00
2023-05-21T08:11:36.186Z,2.00
2023-05-21T08:14:04.562Z,1.00
2023-05-21T08:16:34.635Z,2.00
2023-05-21T08:19:03.274Z,1.67
2023-05-21T08:21:32.966Z,2.00
2023-05-21T08:24:02.822Z,2.00
2023-05-21T08:26:32.258Z,2.00
2023-05-21T08:29:00.445Z,2.00
2023-05-21T08:31:28.414Z,1.00
2023-05-21T08:33:58.085Z,2.00
2023-05-21T08:36:38.076Z,1.00
2023-05-21T08:39:09.932Z,1.25
2023-05-21T08:41:44.383Z,0.50
2023-05-21T08:44:12.821Z,1.00
2023-05-21T08:46:44.531Z,1.00
2023-05-21T08:49:14.167Z,1.00
2023-05-21T08:51:44.640Z,2.00
2023-05-21T08:54:14.128Z,1.33
2023-05-21T08:56:45.919Z,2.00
2023-05-21T08:59:14.211Z,1.00
2023-05-21T09:01:46.170Z,1.00
2023-05-21T09:04:28.881Z,1.00
2023-05-21T09:06:58.167Z,1.00
2023-05-21T09:10:06.145Z,1.00
2023-05-21T09:12:34.486Z,1.00
2023-05-21T09:15:04.283Z,1.00
2023-05-21T09:17:35.857Z,2.00
2023-05-21T09:20:25.857Z,0.00
2023-05-21T09:22:59.363Z,1.00
2023-05-21T09:25:30.439Z,1.00
2023-05-21T09:28:03.560Z,2.00
2023-05-21T09:30:33.380Z,2.00
2023-05-21T09:33:05.405Z,1.00
2023-05-21T09:35:34.885Z,1.33
2023-05-21T09:38:08.795Z,1.00
2023-05-21T09:40:36.896Z,1.00
2023-05-21T09:43:07.277Z,1.00
2023-05-21T09:45:36.081Z,1.50
2023-05-21T09:48:05.881Z,1.00
2023-05-21T09:50:36.249Z,1.00
2023-05-21T09:53:05.819Z,1.00
2023-05-21T09:55:36.267Z,1.33
2023-05-21T09:58:06.121Z,1.00
2023-05-21T10:00:34.261Z,1.00
2023-05-21T10:03:07.449Z,1.00
2023-05-21T10:05:36.279Z,1.00
2023-05-21T10:08:06.075Z,1.00
2023-05-21T10:10:34.152Z,1.00
2023-05-21T10:13:09.697Z,1.00
2023-05-21T10:15:42.584Z,1.50
2023-05-21T10:18:12.138Z,2.00
2023-05-21T10:20:41.447Z,1.00
2023-05-21T10:23:09.711Z,1.00
2023-05-21T10:25:39.177Z,2.00
2023-05-21T10:28:07.184Z,1.00
2023-05-21T10:30:38.015Z,2.00
2023-05-21T10:33:06.725Z,2.00
2023-05-21T10:35:38.069Z,1.00
2023-05-21T10:38:06.492Z,1.00
2023-05-21T10:40:39.203Z,1.00
2023-05-21T10:43:32.978Z,2.00
2023-05-21T10:46:11.134Z,1.00
2023-05-21T10:49:01.010Z,1.00
2023-05-21T10:52:00.836Z,1.00
2023-05-21T10:54:52.946Z,1.00
2023-05-21T10:57:27.886Z,1.00
2023-05-21T10:59:58.207Z,2.00
2023-05-21T11:02:26.586Z,2.00
2023-05-21T11:05:00.197Z,1.00
2023-05-21T11:07:59.282Z,2.00
2023-05-21T11:10:32.981Z,1.00
2023-05-21T11:13:14.329Z,2.00
2023-05-21T11:16:02.247Z,1.00
2023-05-21T11:18:34.167Z,2.00
2023-05-21T11:21:14.795Z,2.00
2023-05-21T11:24:05.297Z,2.00
2023-05-21T11:26:50.223Z,1.00
2023-05-21T11:29:20.154Z,2.00
2023-05-21T11:31:49.471Z,2.00
2023-05-21T11:34:28.894Z,1.00
2023-05-21T11:37:20.777Z,2.00
2023-05-21T11:39:50.604Z,1.00
2023-05-21T11:42:28.939Z,2.00
2023-05-21T11:44:59.401Z,0.50
2023-05-21T11:47:27.985Z,1.00
2023-05-21T11:49:59.791Z,1.00
2023-05-21T11:52:31.310Z,2.00
2023-05-21T11:55:00.581Z,1.00
2023-05-21T11:57:31.969Z,2.00
2023-05-21T12:00:02.308Z,1.00
2023-05-21T12:02:46.572Z,1.00
2023-05-21T12:05:14.999Z,2.00
2023-05-21T12:07:48.734Z,1.00
2023-05-21T12:10:16.920Z,1.00
2023-05-21T12:12:54.912Z,2.00
2023-05-21T12:15:26.627Z,2.00
2023-05-21T12:17:54.965Z,2.25
2023-05-21T12:20:26.288Z,2.00
2023-05-21T12:22:54.654Z,1.25
2023-05-21T12:25:24.083Z,1.00
2023-05-21T12:27:57.990Z,1.25
2023-05-21T12:30:27.553Z,1.00
2023-05-21T12:32:58.213Z,2.00
2023-05-21T12:35:27.724Z,2.00
2023-05-21T12:37:55.856Z,2.00
2023-05-21T12:40:37.203Z,1.67
2023-05-21T12:43:07.213Z,1.00
2023-05-21T12:45:36.812Z,2.00
2023-05-21T12:48:06.304Z,2.00
2023-05-21T12:50:36.154Z,2.00
2023-05-21T12:53:08.959Z,1.00
2023-05-21T12:55:36.972Z,1.00
2023-05-21T12:58:08.862Z,2.00
2023-05-21T13:00:37.973Z,1.00
2023-05-21T13:03:07.650Z,2.00
2023-05-21T13:05:35.866Z,2.00
2023-05-21T13:08:06.277Z,1.00
2023-05-21T13:10:34.277Z,2.00
2023-05-21T13:13:02.398Z,2.00
2023-05-21T13:15:31.963Z,1.00
2023-05-21T13:18:01.333Z,2.00
2023-05-21T13:20:31.333Z,3.00
2023-05-21T13:22:59.422Z,1.00
2023-05-21T13:25:29.196Z,1.50
2023-05-21T13:27:58.122Z,1.00
2023-05-21T13:30:27.691Z,2.00
2023-05-21T13:32:56.039Z,2.00
2023-05-21T13:35:25.516Z,1.00
2023-05-21T13:37:53.515Z,1.00
2023-05-21T13:40:24.042Z,2.00
2023-05-21T13:42:52.525Z,2.00
2023-05-21T13:45:24.586Z,1.00
2023-05-21T13:47:52.941Z,2.00
2023-05-21T13:50:22.433Z,2.00
2023-05-21T13:52:50.548Z,1.00
2023-05-21T13:55:19.790Z,2.00
2023-05-21T13:57:49.067Z,1.00
2023-05-21T14:00:17.366Z,2.00
2023-05-21T14:02:48.149Z,1.33
2023-05-21T14:05:16.421Z,2.00
2023-05-21T14:07:48.511Z,1.00
2023-05-21T14:10:17.051Z,1.00
2023-05-21T14:12:47.350Z,1.00
2023-05-21T14:15:16.261Z,1.00
2023-05-21T14:17:45.707Z,2.00
2023-05-21T14:20:13.877Z,1.00
2023-05-21T14:22:43.611Z,1.00
2023-05-21T14:25:11.945Z,1.50
2023-05-21T14:27:42.183Z,1.33
2023-05-21T14:30:10.543Z,0.50
2023-05-21T14:32:41.151Z,1.00
2023-05-21T14:35:09.701Z,2.00
2023-05-21T14:37:39.046Z,2.00
2023-05-21T14:40:08.056Z,1.00
2023-05-21T14:42:37.380Z,1.00
2023-05-21T14:45:18.226Z,2.00
2023-05-21T14:47:48.721Z,1.50
2023-05-21T14:50:17.595Z,0.75
2023-05-21T14:52:46.830Z,2.00
2023-05-21T14:55:16.994Z,2.00
2023-05-21T14:57:46.293Z,1.00
2023-05-21T15:00:14.534Z,1.00
2023-05-21T15:02:42.693Z,1.75
2023-05-21T15:05:11.985Z,1.00
2023-05-21T15:07:39.920Z,1.00
2023-05-21T15:10:08.700Z,1.00
2023-05-21T15:12:38.921Z,1.00
2023-05-21T15:15:07.899Z,0.67
2023-05-21T15:17:37.209Z,1.00
2023-05-21T15:20:06.009Z,0.50
2023-05-21T15:22:35.802Z,1.00
2023-05-21T15:25:04.602Z,2.00
2023-05-21T15:27:34.376Z,1.00
2023-05-21T15:30:02.573Z,0.00
2023-05-21T15:32:33.008Z,2.00
2023-05-21T15:35:01.201Z,0.67
2023-05-21T15:37:33.092Z,1.00
2023-05-21T15:40:01.302Z,1.00
2023-05-21T15:42:32.004Z,0.00
2023-05-21T15:45:00.153Z,1.00
2023-05-21T15:47:29.727Z,1.00
2023-05-21T15:49:58.948Z,0.67
2023-05-21T15:52:29.199Z,1.00
2023-05-21T15:54:57.303Z,1.00
2023-05-21T15:57:25.368Z,1.00
2023-05-21T15:59:55.253Z,1.00
2023-05-21T16:02:23.374Z,1.00
2023-05-21T16:04:53.767Z,1.00
2023-05-21T16:07:23.221Z,1.00
2023-05-21T16:09:52.512Z,1.67
2023-05-21T16:12:21.070Z,1.00
2023-05-21T16:14:51.357Z,1.00
2023-05-21T16:17:20.017Z,1.00
2023-05-21T16:19:50.362Z,1.00
2023-05-21T16:22:20.490Z,1.00
2023-05-21T16:24:49.755Z,1.00
2023-05-21T16:27:17.843Z,1.00
2023-05-21T16:29:46.181Z,1.00
2023-05-21T16:32:16.145Z,1.00
2023-05-21T16:34:44.510Z,1.00
2023-05-21T16:37:15.668Z,2.00
2023-05-21T16:39:43.978Z,1.00
2023-05-21T16:42:13.209Z,1.00
2023-05-21T16:44:41.421Z,1.00
2023-05-21T16:47:09.442Z,1.00
2023-05-21T16:49:38.675Z,2.00
2023-05-21T16:52:06.790Z,1.00
2023-05-21T16:54:34.859Z,1.00
2023-05-21T16:57:04.817Z,1.00
2023-05-21T16:59:32.775Z,1.00
2023-05-21T17:02:03.112Z,1.00
2023-05-21T17:04:31.102Z,1.00
2023-05-21T17:07:01.681Z,1.00
2023-05-21T17:09:30.925Z,2.00
2023-05-21T17:12:00.137Z,1.00
2023-05-21T17:14:34.484Z,1.00
2023-05-21T17:17:04.733Z,1.00
2023-05-21T17:19:33.240Z,1.00
2023-05-21T17:22:02.651Z,1.00
2023-05-21T17:24:30.934Z,2.00
2023-05-21T17:26:59.094Z,1.00
2023-05-21T17:29:28.636Z,1.00
2023-05-21T17:31:56.700Z,1.00
2023-05-21T17:34:29.715Z,1.00
2023-05-21T17:36:58.495Z,0.67
2023-05-21T17:39:27.939Z,1.00
2023-05-21T17:41:56.082Z,1.00
2023-05-21T17:44:26.361Z,1.00
2023-05-21T17:46:56.395Z,1.00
2023-05-21T17:49:26.009Z,0.50
2023-05-21T17:51:54.308Z,1.00
2023-05-21T17:54:24.885Z,1.00
2023-05-21T17:56:53.105Z,1.00
2023-05-21T17:59:23.956Z,1.00
2023-05-21T18:01:52.403Z,1.00
2023-05-21T18:04:22.801Z,1.00
2023-05-21T18:06:51.828Z,0.50
2023-05-21T18:09:21.313Z,1.00
2023-05-21T18:11:49.509Z,0.33
2023-05-21T18:14:19.721Z,0.67
2023-05-21T18:16:47.826Z,1.00
2023-05-21T18:19:16.003Z,1.00
2023-05-21T18:21:45.525Z,0.00
2023-05-21T18:24:13.993Z,0.00
2023-05-21T18:26:46.534Z,1.00
2023-05-21T18:29:15.126Z,1.00
2023-05-21T18:31:45.597Z,1.00
2023-05-21T18:34:13.813Z,0.00
2023-05-21T18:36:43.197Z,1.00
2023-05-21T18:39:11.668Z,1.00
2023-05-21T18:41:41.432Z,1.00
2023-05-21T18:44:09.617Z,1.00
2023-05-21T18:46:39.850Z,1.00
2023-05-21T18:49:08.033Z,1.00
2023-05-21T18:51:38.600Z,1.00
2023-05-21T18:54:08.598Z,1.00
2023-05-21T18:56:37.938Z,2.00
2023-05-21T18:59:06.142Z,1.00
2023-05-21T19:01:36.575Z,1.00
2023-05-21T19:04:05.299Z,1.00
2023-05-21T19:06:34.994Z,1.50
2023-05-21T19:09:03.123Z,1.00
2023-05-21T19:11:34.510Z,1.00
2023-05-21T19:14:04.434Z,1.00
2023-05-21T19:16:32.483Z,1.00
2023-05-21T19:19:03.302Z,1.00
2023-05-21T19:21:32.361Z,1.00
2023-05-21T19:24:02.999Z,0.50
2023-05-21T19:26:32.393Z,2.00
2023-05-21T19:29:01.569Z,1.00
2023-05-21T19:31:29.994Z,1.33
2023-05-21T19:33:59.668Z,0.00
2023-05-21T19:36:32.571Z,2.00
2023-05-21T19:39:09.206Z,2.00
2023-05-21T19:41:37.395Z,1.00
2023-05-21T19:44:07.216Z,1.00
2023-05-21T19:46:35.319Z,1.00
2023-05-21T19:49:03.330Z,1.00
2023-05-21T19:51:32.628Z,1.00
2023-05-21T19:54:00.604Z,1.00
2023-05-21T19:56:28.640Z,1.00
2023-05-21T19:58:57.949Z,1.00
2023-05-21T20:01:26.312Z,1.00
2023-05-21T20:03:56.619Z,2.00
2023-05-21T20:06:24.712Z,2.00
2023-05-21T20:08:55.209Z,2.00
2023-05-21T20:11:23.937Z,2.00
2023-05-21T20:13:54.359Z,1.00
2023-05-21T20:16:23.349Z,0.25
2023-05-21T20:18:57.022Z,1.50
2023-05-21T20:21:25.613Z,2.00
2023-05-21T20:23:54.932Z,1.00
2023-05-21T20:26:23.283Z,1.00
2023-05-21T20:28:54.180Z,2.00
2023-05-21T20:31:22.618Z,1.00
2023-05-21T20:33:51.999Z,1.00
2023-05-21T20:36:21.419Z,0.00
2023-05-21T20:38:50.627Z,1.00
2023-05-21T20:41:18.789Z,1.00
2023-05-21T20:43:49.447Z,1.00
2023-05-21T20:46:17.518Z,1.00
2023-05-21T20:48:45.604Z,1.00
2023-05-21T20:51:14.850Z,1.00
2023-05-21T20:53:42.768Z,1.00
2023-05-21T20:56:16.944Z,1.00
2023-05-21T20:58:48.508Z,1.00
2023-05-21T21:01:18.752Z,2.00
2023-05-21T21:03:46.960Z,1.00
2023-05-21T21:06:18.835Z,1.00
2023-05-21T21:08:46.766Z,1.00
2023-05-21T21:11:16.104Z,1.00
2023-05-21T21:13:44.100Z,1.00
2023-05-21T21:16:14.364Z,1.00
2023-05-21T21:18:42.421Z,1.00
2023-05-21T21:21:10.434Z,1.00
2023-05-21T21:23:39.797Z,1.00
2023-05-21T21:26:07.716Z,0.00
2023-05-21T21:28:36.090Z,1.00
2023-05-21T21:31:05.576Z,1.00
2023-05-21T21:33:34.062Z,1.00
2023-05-21T21:36:04.669Z,1.00
2023-05-21T21:38:33.712Z,1.00
2023-05-21T21:41:03.348Z,1.00
2023-05-21T21:43:31.367Z,1.00
2023-05-21T21:46:01.755Z,1.00
2023-05-21T21:48:29.775Z,1.00
2023-05-21T21:51:00.072Z,0.00
2023-05-21T21:53:28.193Z,0.00
2023-05-21T21:55:56.268Z,0.50
2023-05-21T21:58:25.492Z,0.00
2023-05-21T22:00:53.753Z,1.00
2023-05-21T22:03:24.145Z,1.00
2023-05-21T22:05:52.157Z,1.00
2023-05-21T22:08:22.418Z,0.00
2023-05-21T22:10:50.666Z,1.00
2023-05-21T22:13:21.057Z,1.00
2023-05-21T22:15:49.858Z,1.00
2023-05-21T22:18:25.326Z,1.00
2023-05-21T22:21:01.999Z,0.50
2023-05-21T22:23:30.033Z,0.75
2023-05-21T22:26:00.961Z,1.00
2023-05-21T22:28:29.030Z,1.00
2023-05-21T22:30:59.290Z,1.00
2023-05-21T22:33:27.249Z,0.00
2023-05-21T22:35:55.541Z,1.00
2023-05-21T22:38:25.154Z,0.50
2023-05-21T22:40:54.057Z,1.00
2023-05-21T22:43:23.679Z,1.00
2023-05-21T22:45:51.721Z,1.00
2023-05-21T22:48:22.158Z,0.00
2023-05-21T22:50:50.449Z,1.00
2023-05-21T22:53:21.077Z,1.00
2023-05-21T22:55:49.396Z,1.00
2023-05-21T22:58:19.718Z,1.00
2023-05-21T23:00:48.180Z,1.00
2023-05-21T23:03:17.590Z,0.50
2023-05-21T23:05:46.107Z,0.50
2023-05-21T23:08:15.646Z,1.00
2023-05-21T23:10:43.775Z,0.67
2023-05-21T23:13:14.081Z,1.00
2023-05-21T23:15:43.928Z,1.00
2023-05-21T23:18:13.626Z,1.00
2023-05-21T23:20:42.248Z,0.00
2023-05-21T23:23:11.691Z,1.00
2023-05-21T23:25:39.695Z,1.00
2023-05-21T23:28:07.808Z,1.00
2023-05-21T23:30:37.279Z,0.00
2023-05-21T23:33:05.877Z,0.25
2023-05-21T23:35:36.094Z,0.00
2023-05-21T23:38:04.226Z,1.00
2023-05-21T23:40:33.509Z,1.00
2023-05-21T23:43:01.440Z,1.00
2023-05-21T23:45:29.539Z,0.50
2023-05-21T23:47:58.826Z,1.00
2023-05-21T23:50:27.435Z,0.50
2023-05-21T23:52:57.949Z,0.67
2023-05-21T23:55:25.928Z,1.00
2023-05-21T23:57:56.139Z,0.00
